Atka, Alaska
Current Conditions -  °F | °C
As of 2:16 PM on Wednesday 28 Jan 2015 (Local Time) from PAAK Reporting Station
Overcast Overcast  
Wind Chill: -5°   Ceiling: 2200
Heat Index:   Visibility: 3mi
Dew Point: -3°   Wind: 18mph
Humidity: 75%   Direction: 350°N
Pressure: 30.15"   Gusts: 28mph
Location:  52.19°N, 174.2°W
Report Text: PAAK 290016Z 35016G24KT 3SM FEW016 OVC022 01/M03 A3015 RMK AO1
Loading
Personal Weather Stations






























Interactive Weather Map New forecast layout! Learn more

10-Day Weather Forecast

Advertisements
Track Severe Weather on mobile